Nyk Constellation — V7NP4 — position and weather

sailwx.info

Track history (hours):
 
Tides and Currents Weather Stations Pressure Air Temp Water Temp Dewpoint Dewpoint Depression Visibility Wind Speed Wind Dir Waves Ship Positions

Nyk Constellation

Last reported at 2017-Jan-21 09:10 UTC. Time now 2017-Jan-24 13:18 UTC.
Position N 40°23' W 073°26'.

Length 294 m; draft 11.4 m.

Type: Cargo ship. MMSI: 538002992.

Date/timePositionNaut miles runAvg speedWind from/ knotsBaromVisibWave heightAir tempDewpointWater temp
2017-Jan-21 09:10N 40°23' W 073°26'6 9.4
2017-Jan-21 08:32N 40°24' W 073°33'9 9.4
2017-Jan-21 07:32N 40°26' W 073°45'9 9.2
2017-Jan-21 06:33N 40°30' W 073°56'9 9.5
2017-Jan-21 05:33N 40°38' W 074°03'5 4.8
2017-Jan-21 04:34N 40°39' W 074°09'1 1.4
2017-Jan-21 03:32N 40°39' W 074°11'0 0.0
2017-Jan-21 02:32N 40°39' W 074°11'0 0.0
2017-Jan-21 01:32N 40°39' W 074°11'0 0.0
2017-Jan-21 00:32N 40°39' W 074°11'0 0.0
2017-Jan-20 23:32N 40°39' W 074°11'0 0.0
2017-Jan-20 22:31N 40°39' W 074°11'0 0.0
2017-Jan-20 21:32N 40°39' W 074°11'0 0.0
2017-Jan-20 20:31N 40°39' W 074°11'0 0.0
2017-Jan-20 19:31N 40°39' W 074°11'0 0.0
2017-Jan-20 18:31N 40°39' W 074°11'0 0.0
2017-Jan-20 17:32N 40°39' W 074°11'0 0.0
2017-Jan-20 16:31N 40°39' W 074°11'0 0.0
2017-Jan-20 15:32N 40°39' W 074°11'0 0.0
2017-Jan-20 14:31N 40°39' W 074°11'0 0.0
2017-Jan-20 13:32N 40°39' W 074°11'0 0.0
2017-Jan-20 12:32N 40°39' W 074°11'1 1.5
2017-Jan-20 11:33N 40°39' W 074°09'5 4.9
2017-Jan-20 10:33N 40°38' W 074°03'1010.4
2017-Jan-20 09:33N 40°29' W 073°55'8 7.8
2017-Jan-20 08:33N 40°24' W 073°47'8 7.8
2017-Jan-20 07:33N 40°16' W 073°46'9 8.0
2017-Jan-20 06:26N 40°08' W 073°44'7 8.2
2017-Jan-20 05:33N 40°00' W 073°43'8 8.4
2017-Jan-20 04:33N 39°52' W 073°42'8 8.2
2017-Jan-20 03:33N 39°44' W 073°38'  
Track history (hours):
 
Tides and Currents Weather Stations Pressure Air Temp Water Temp Dewpoint Dewpoint Depression Visibility Wind Speed Wind Dir Waves Ship Positions

Nyk Constellation

Last reported at 2017-Jan-21 09:10 UTC. Time now 2017-Jan-24 13:18 UTC.
Position N 40°23' W 073°26'.

Length 294 m; draft 11.4 m.

Type: Cargo ship. MMSI: 538002992.

Date/timePositionNaut miles runAvg speedWind from/ knotsBaromVisibWave heightAir tempDewpointWater temp
2017-Jan-21 09:10N 40°23' W 073°26'6 9.4
2017-Jan-21 08:32N 40°24' W 073°33'9 9.4
2017-Jan-21 07:32N 40°26' W 073°45'9 9.2
2017-Jan-21 06:33N 40°30' W 073°56'9 9.5
2017-Jan-21 05:33N 40°38' W 074°03'5 4.8
2017-Jan-21 04:34N 40°39' W 074°09'1 1.4
2017-Jan-21 03:32N 40°39' W 074°11'0 0.0
2017-Jan-21 02:32N 40°39' W 074°11'0 0.0
2017-Jan-21 01:32N 40°39' W 074°11'0 0.0
2017-Jan-21 00:32N 40°39' W 074°11'0 0.0
2017-Jan-20 23:32N 40°39' W 074°11'0 0.0
2017-Jan-20 22:31N 40°39' W 074°11'0 0.0
2017-Jan-20 21:32N 40°39' W 074°11'0 0.0
2017-Jan-20 20:31N 40°39' W 074°11'0 0.0
2017-Jan-20 19:31N 40°39' W 074°11'0 0.0
2017-Jan-20 18:31N 40°39' W 074°11'0 0.0
2017-Jan-20 17:32N 40°39' W 074°11'0 0.0
2017-Jan-20 16:31N 40°39' W 074°11'0 0.0
2017-Jan-20 15:32N 40°39' W 074°11'0 0.0
2017-Jan-20 14:31N 40°39' W 074°11'0 0.0
2017-Jan-20 13:32N 40°39' W 074°11'0 0.0
2017-Jan-20 12:32N 40°39' W 074°11'1 1.5
2017-Jan-20 11:33N 40°39' W 074°09'5 4.9
2017-Jan-20 10:33N 40°38' W 074°03'1010.4
2017-Jan-20 09:33N 40°29' W 073°55'8 7.8
2017-Jan-20 08:33N 40°24' W 073°47'8 7.8
2017-Jan-20 07:33N 40°16' W 073°46'9 8.0
2017-Jan-20 06:26N 40°08' W 073°44'7 8.2
2017-Jan-20 05:33N 40°00' W 073°43'8 8.4
2017-Jan-20 04:33N 39°52' W 073°42'8 8.2
2017-Jan-20 03:33N 39°44' W 073°38'  

Dump ship's entire track history